sensor_id;sensor_type;location;lat;lon;timestamp;pressure;altitude;pressure_sealevel;temperature;humidity
10718;BME280;13513;42.700;23.124;2024-01-06T00:00:05;151265.77;;;9.20;53.47
10718;BME280;13513;42.700;23.124;2024-01-06T00:02:33;151299.41;;;9.33;54.77
10718;BME280;13513;42.700;23.124;2024-01-06T00:05:00;151296.78;;;9.32;52.81
10718;BME280;13513;42.700;23.124;2024-01-06T00:07:28;151323.97;;;9.43;52.64
10718;BME280;13513;42.700;23.124;2024-01-06T00:09:55;151360.14;;;9.57;51.42
10718;BME280;13513;42.700;23.124;2024-01-06T00:12:23;151386.02;;;9.67;51.55
10718;BME280;13513;42.700;23.124;2024-01-06T00:14:50;151398.94;;;9.72;51.87
10718;BME280;13513;42.700;23.124;2024-01-06T00:17:17;151409.28;;;9.76;52.01
10718;BME280;13513;42.700;23.124;2024-01-06T00:19:45;151373.11;;;9.62;53.50
10718;BME280;13513;42.700;23.124;2024-01-06T00:22:14;151270.95;;;9.22;54.05
10718;BME280;13513;42.700;23.124;2024-01-06T00:24:41;151248.97;;;9.14;54.61
10718;BME280;13513;42.700;23.124;2024-01-06T00:27:09;151265.77;;;9.20;53.95
10718;BME280;13513;42.700;23.124;2024-01-06T00:29:36;151279.98;;;9.26;54.66
10718;BME280;13513;42.700;23.124;2024-01-06T00:32:04;151269.64;;;9.22;53.06
10718;BME280;13513;42.700;23.124;2024-01-06T00:34:32;151314.89;;;9.39;52.04
10718;BME280;13513;42.700;23.124;2024-01-06T00:36:59;151380.83;;;9.65;52.07
10718;BME280;13513;42.700;23.124;2024-01-06T00:39:27;151369.22;;;9.60;51.96
10718;BME280;13513;42.700;23.124;2024-01-06T00:41:54;151388.59;;;9.68;52.04
10718;BME280;13513;42.700;23.124;2024-01-06T00:44:22;151411.84;;;9.77;52.20
10718;BME280;13513;42.700;23.124;2024-01-06T00:46:49;151382.14;;;9.65;53.36
10718;BME280;13513;42.700;23.124;2024-01-06T00:49:16;151396.36;;;9.71;52.13
10718;BME280;13513;42.700;23.124;2024-01-06T00:51:44;151391.16;;;9.69;51.88
10718;BME280;13513;42.700;23.124;2024-01-06T00:54:11;151428.72;;;9.83;51.10
10718;BME280;13513;42.700;23.124;2024-01-06T00:56:39;151451.97;;;9.92;50.60
10718;BME280;13513;42.700;23.124;2024-01-06T00:59:08;151428.72;;;9.83;51.27
10718;BME280;13513;42.700;23.124;2024-01-06T01:01:36;151426.09;;;9.82;51.41
10718;BME280;13513;42.700;23.124;2024-01-06T01:04:03;151419.63;;;9.80;51.73
10718;BME280;13513;42.700;23.124;2024-01-06T01:06:31;151408.02;;;9.75;51.37
10718;BME280;13513;42.700;23.124;2024-01-06T01:08:58;151392.48;;;9.69;52.73
10718;BME280;13513;42.700;23.124;2024-01-06T01:11:26;151387.28;;;9.67;53.25
10718;BME280;13513;42.700;23.124;2024-01-06T01:13:53;151371.80;;;9.61;52.05
10718;BME280;13513;42.700;23.124;2024-01-06T01:16:21;151355.00;;;9.55;52.50
10718;BME280;13513;42.700;23.124;2024-01-06T01:18:48;151308.44;;;9.37;52.45
10718;BME280;13513;42.700;23.124;2024-01-06T01:21:16;151317.47;;;9.40;52.31
10718;BME280;13513;42.700;23.124;2024-01-06T01:23:43;151338.14;;;9.48;51.37
10718;BME280;13513;42.700;23.124;2024-01-06T01:26:11;151314.89;;;9.39;52.25
10718;BME280;13513;42.700;23.124;2024-01-06T01:28:38;151335.56;;;9.47;51.76
10718;BME280;13513;42.700;23.124;2024-01-06T01:31:06;151334.31;;;9.47;51.72
10718;BME280;13513;42.700;23.124;2024-01-06T01:33:34;151333.00;;;9.46;51.68
10718;BME280;13513;42.700;23.124;2024-01-06T01:36:01;151320.08;;;9.41;52.01
10718;BME280;13513;42.700;23.124;2024-01-06T01:38:29;151342.03;;;9.50;52.62
10718;BME280;13513;42.700;23.124;2024-01-06T01:40:56;151353.69;;;9.54;52.73
10718;BME280;13513;42.700;23.124;2024-01-06T01:43:25;151343.34;;;9.50;52.62
10718;BME280;13513;42.700;23.124;2024-01-06T01:45:54;151351.11;;;9.53;52.63
10718;BME280;13513;42.700;23.124;2024-01-06T01:48:23;151383.45;;;9.66;52.65
10718;BME280;13513;42.700;23.124;2024-01-06T01:50:51;151364.03;;;9.58;52.64
10718;BME280;13513;42.700;23.124;2024-01-06T01:53:20;151365.34;;;9.59;52.94
10718;BME280;13513;42.700;23.124;2024-01-06T01:55:50;151358.87;;;9.56;52.41
10718;BME280;13513;42.700;23.124;2024-01-06T01:58:18;151349.80;;;9.53;52.18
10718;BME280;13513;42.700;23.124;2024-01-06T02:00:46;151365.34;;;9.59;52.05
10718;BME280;13513;42.700;23.124;2024-01-06T02:03:13;151389.91;;;9.68;51.43
10718;BME280;13513;42.700;23.124;2024-01-06T02:05:41;151400.25;;;9.72;51.90
10718;BME280;13513;42.700;23.124;2024-01-06T02:08:09;151410.59;;;9.76;50.73
10718;BME280;13513;42.700;23.124;2024-01-06T02:10:36;151384.72;;;9.66;51.25
10718;BME280;13513;42.700;23.124;2024-01-06T02:13:09;151424.83;;;9.82;51.35
10718;BME280;13513;42.700;23.124;2024-01-06T02:15:37;151433.86;;;9.85;50.74
10718;BME280;13513;42.700;23.124;2024-01-06T02:18:05;151426.09;;;9.82;50.54
10718;BME280;13513;42.700;23.124;2024-01-06T02:20:33;151453.28;;;9.93;50.43
10718;BME280;13513;42.700;23.124;2024-01-06T02:23:01;151433.86;;;9.85;50.69
10718;BME280;13513;42.700;23.124;2024-01-06T02:25:28;151453.28;;;9.93;50.96
10718;BME280;13513;42.700;23.124;2024-01-06T02:27:56;151471.34;;;10.00;51.50
10718;BME280;13513;42.700;23.124;2024-01-06T02:30:23;151410.59;;;9.76;52.81
10718;BME280;13513;42.700;23.124;2024-01-06T02:32:51;151335.56;;;9.47;55.03
10718;BME280;13513;42.700;23.124;2024-01-06T02:35:18;151380.83;;;9.65;54.82
10718;BME280;13513;42.700;23.124;2024-01-06T02:37:46;151321.34;;;9.42;55.50
10718;BME280;13513;42.700;23.124;2024-01-06T02:40:14;151316.20;;;9.40;54.77
10718;BME280;13513;42.700;23.124;2024-01-06T02:42:41;151352.37;;;9.54;54.56
10718;BME280;13513;42.700;23.124;2024-01-06T02:45:09;151374.38;;;9.62;53.91
10718;BME280;13513;42.700;23.124;2024-01-06T02:47:37;151406.70;;;9.75;53.18
10718;BME280;13513;42.700;23.124;2024-01-06T02:50:05;151409.28;;;9.76;53.85
10718;BME280;13513;42.700;23.124;2024-01-06T02:52:32;151365.34;;;9.59;54.27
10718;BME280;13513;42.700;23.124;2024-01-06T02:55:00;151369.22;;;9.60;55.13
10718;BME280;13513;42.700;23.124;2024-01-06T02:57:29;151360.14;;;9.57;55.48
10718;BME280;13513;42.700;23.124;2024-01-06T02:59:57;151362.72;;;9.58;54.96
10718;BME280;13513;42.700;23.124;2024-01-06T03:02:24;151307.13;;;9.36;55.80
10718;BME280;13513;42.700;23.124;2024-01-06T03:04:52;151299.41;;;9.33;56.73
10718;BME280;13513;42.700;23.124;2024-01-06T03:07:19;151273.53;;;9.23;57.37
10718;BME280;13513;42.700;23.124;2024-01-06T03:09:46;151279.98;;;9.26;57.05
10718;BME280;13513;42.700;23.124;2024-01-06T03:12:14;151270.95;;;9.22;57.54
10718;BME280;13513;42.700;23.124;2024-01-06T03:14:41;151056.44;;;8.39;58.51
10718;BME280;13513;42.700;23.124;2024-01-06T03:17:09;151221.84;;;9.03;59.17
10718;BME280;13513;42.700;23.124;2024-01-06T03:19:39;151212.75;;;9.00;59.44
10718;BME280;13513;42.700;23.124;2024-01-06T03:22:07;151159.83;;;8.79;60.41
10718;BME280;13513;42.700;23.124;2024-01-06T03:24:34;151148.17;;;8.75;61.33
10718;BME280;13513;42.700;23.124;2024-01-06T03:27:01;151101.66;;;8.57;62.16
10718;BME280;13513;42.700;23.124;2024-01-06T03:29:29;151096.50;;;8.55;63.26
10718;BME280;13513;42.700;23.124;2024-01-06T03:31:56;151079.72;;;8.48;63.61
10718;BME280;13513;42.700;23.124;2024-01-06T03:34:24;151110.72;;;8.60;63.89
10718;BME280;13513;42.700;23.124;2024-01-06T03:36:52;151118.44;;;8.63;63.67
10718;BME280;13513;42.700;23.124;2024-01-06T03:39:20;151135.27;;;8.70;63.92
10718;BME280;13513;42.700;23.124;2024-01-06T03:41:48;151215.38;;;9.01;61.67
10718;BME280;13513;42.700;23.124;2024-01-06T03:44:16;151199.84;;;8.95;61.75
10718;BME280;13513;42.700;23.124;2024-01-06T03:46:43;151245.09;;;9.12;61.17
10718;BME280;13513;42.700;23.124;2024-01-06T03:49:11;151241.20;;;9.11;60.75
10718;BME280;13513;42.700;23.124;2024-01-06T03:51:38;151270.95;;;9.22;60.23
10718;BME280;13513;42.700;23.124;2024-01-06T03:54:05;151259.31;;;9.18;60.17
10718;BME280;13513;42.700;23.124;2024-01-06T03:56:33;151260.63;;;9.18;60.08
10718;BME280;13513;42.700;23.124;2024-01-06T03:59:00;151276.09;;;9.24;59.85
10718;BME280;13513;42.700;23.124;2024-01-06T04:01:28;151265.77;;;9.20;59.89
10718;BME280;13513;42.700;23.124;2024-01-06T04:03:55;151270.95;;;9.22;60.42
10718;BME280;13513;42.700;23.124;2024-01-06T04:06:23;151276.09;;;9.24;60.13
10718;BME280;13513;42.700;23.124;2024-01-06T04:08:51;151250.28;;;9.14;60.85
10718;BME280;13513;42.700;23.124;2024-01-06T04:11:20;151256.73;;;9.17;60.80
10718;BME280;13513;42.700;23.124;2024-01-06T04:13:48;151251.53;;;9.15;61.21
10718;BME280;13513;42.700;23.124;2024-01-06T04:16:15;151234.75;;;9.08;61.51
10718;BME280;13513;42.700;23.124;2024-01-06T04:18:43;151270.95;;;9.22;62.02
10718;BME280;13513;42.700;23.124;2024-01-06T04:21:10;151256.73;;;9.17;63.33
10718;BME280;13513;42.700;23.124;2024-01-06T04:23:38;151276.09;;;9.24;63.23
10718;BME280;13513;42.700;23.124;2024-01-06T04:26:05;151268.34;;;9.21;64.33
10718;BME280;13513;42.700;23.124;2024-01-06T04:28:33;151299.41;;;9.33;64.02
10718;BME280;13513;42.700;23.124;2024-01-06T04:31:00;151289.06;;;9.29;65.52
10718;BME280;13513;42.700;23.124;2024-01-06T04:33:28;151305.86;;;9.36;65.50
10718;BME280;13513;42.700;23.124;2024-01-06T04:35:55;151323.97;;;9.43;65.40
10718;BME280;13513;42.700;23.124;2024-01-06T04:38:23;151351.11;;;9.53;64.75
10718;BME280;13513;42.700;23.124;2024-01-06T04:40:50;151367.91;;;9.60;64.59
10718;BME280;13513;42.700;23.124;2024-01-06T04:43:18;151330.42;;;9.45;65.54
10718;BME280;13513;42.700;23.124;2024-01-06T04:45:45;151335.56;;;9.47;66.21
10718;BME280;13513;42.700;23.124;2024-01-06T04:48:13;151361.45;;;9.57;66.14
10718;BME280;13513;42.700;23.124;2024-01-06T04:50:40;151331.69;;;9.46;66.95
10718;BME280;13513;42.700;23.124;2024-01-06T04:53:08;151307.13;;;9.36;66.97
10718;BME280;13513;42.700;23.124;2024-01-06T04:55:35;151296.78;;;9.32;67.39
10718;BME280;13513;42.700;23.124;2024-01-06T04:58:03;151317.47;;;9.40;67.75
10718;BME280;13513;42.700;23.124;2024-01-06T05:00:30;151277.41;;;9.25;68.27
10718;BME280;13513;42.700;23.124;2024-01-06T05:02:58;151270.95;;;9.22;68.97
10718;BME280;13513;42.700;23.124;2024-01-06T05:05:26;151260.63;;;9.18;69.37
10718;BME280;13513;42.700;23.124;2024-01-06T05:07:53;151256.73;;;9.17;69.30
10718;BME280;13513;42.700;23.124;2024-01-06T05:10:21;151267.08;;;9.21;69.43
10718;BME280;13513;42.700;23.124;2024-01-06T05:12:48;151272.22;;;9.23;69.33
10718;BME280;13513;42.700;23.124;2024-01-06T05:15:16;151290.33;;;9.30;69.27
10718;BME280;13513;42.700;23.124;2024-01-06T05:17:43;151292.89;;;9.31;69.51
10718;BME280;13513;42.700;23.124;2024-01-06T05:20:11;151278.72;;;9.25;69.94
10718;BME280;13513;42.700;23.124;2024-01-06T05:22:38;151286.44;;;9.28;70.34
10718;BME280;13513;42.700;23.124;2024-01-06T05:25:06;151312.31;;;9.38;69.42
10718;BME280;13513;42.700;23.124;2024-01-06T05:27:33;151305.86;;;9.36;69.87
10718;BME280;13513;42.700;23.124;2024-01-06T05:30:01;151292.89;;;9.31;70.23
10718;BME280;13513;42.700;23.124;2024-01-06T05:32:29;151290.33;;;9.30;71.13
10718;BME280;13513;42.700;23.124;2024-01-06T05:34:56;151269.64;;;9.22;72.15
10718;BME280;13513;42.700;23.124;2024-01-06T05:37:24;151258.00;;;9.17;73.10
10718;BME280;13513;42.700;23.124;2024-01-06T05:39:51;151256.73;;;9.17;74.09
10718;BME280;13513;42.700;23.124;2024-01-06T05:42:19;151265.77;;;9.20;74.07
10718;BME280;13513;42.700;23.124;2024-01-06T05:44:46;151256.73;;;9.17;74.69
10718;BME280;13513;42.700;23.124;2024-01-06T05:47:14;151248.97;;;9.14;75.59
10718;BME280;13513;42.700;23.124;2024-01-06T05:49:44;151278.72;;;9.25;75.10
10718;BME280;13513;42.700;23.124;2024-01-06T05:52:11;151260.63;;;9.18;75.03
10718;BME280;13513;42.700;23.124;2024-01-06T05:54:42;151295.52;;;9.32;74.88
10718;BME280;13513;42.700;23.124;2024-01-06T05:57:09;151312.31;;;9.38;74.20
10718;BME280;13513;42.700;23.124;2024-01-06T05:59:38;151292.89;;;9.31;74.88
10718;BME280;13513;42.700;23.124;2024-01-06T06:02:05;151300.66;;;9.34;74.98
10718;BME280;13513;42.700;23.124;2024-01-06T06:04:33;151290.33;;;9.30;75.11
10718;BME280;13513;42.700;23.124;2024-01-06T06:07:00;151295.52;;;9.32;75.44
10718;BME280;13513;42.700;23.124;2024-01-06T06:09:28;151287.75;;;9.29;75.50
10718;BME280;13513;42.700;23.124;2024-01-06T06:11:56;151285.19;;;9.28;75.38
10718;BME280;13513;42.700;23.124;2024-01-06T06:14:23;151277.41;;;9.25;76.69
10718;BME280;13513;42.700;23.124;2024-01-06T06:16:51;151295.52;;;9.32;73.30
10718;BME280;13513;42.700;23.124;2024-01-06T06:19:18;151224.41;;;9.04;71.56
10718;BME280;13513;42.700;23.124;2024-01-06T06:21:46;151145.59;;;8.74;71.96
10718;BME280;13513;42.700;23.124;2024-01-06T06:24:14;150994.41;;;8.15;74.29
10718;BME280;13513;42.700;23.124;2024-01-06T06:26:41;150911.78;;;7.83;77.36
10718;BME280;13513;42.700;23.124;2024-01-06T06:29:09;150871.75;;;7.67;77.85
10718;BME280;13513;42.700;23.124;2024-01-06T06:31:36;150820.13;;;7.47;80.28
10718;BME280;13513;42.700;23.124;2024-01-06T06:34:04;150786.59;;;7.34;82.03
10718;BME280;13513;42.700;23.124;2024-01-06T06:36:31;150745.25;;;7.18;83.25
10718;BME280;13513;42.700;23.124;2024-01-06T06:38:59;150731.06;;;7.13;84.42
10718;BME280;13513;42.700;23.124;2024-01-06T06:41:26;150754.31;;;7.22;84.43
10718;BME280;13513;42.700;23.124;2024-01-06T06:43:53;150675.59;;;6.91;85.13
10718;BME280;13513;42.700;23.124;2024-01-06T06:46:21;150682.08;;;6.94;86.74
10718;BME280;13513;42.700;23.124;2024-01-06T06:48:48;150724.61;;;7.10;85.97
10718;BME280;13513;42.700;23.124;2024-01-06T06:51:16;150746.56;;;7.19;85.87
10718;BME280;13513;42.700;23.124;2024-01-06T06:53:44;150720.73;;;7.09;86.64
10718;BME280;13513;42.700;23.124;2024-01-06T06:56:11;150719.48;;;7.08;86.86
10718;BME280;13513;42.700;23.124;2024-01-06T06:58:41;150755.58;;;7.22;87.19
10718;BME280;13513;42.700;23.124;2024-01-06T07:01:08;150777.53;;;7.31;85.98
10718;BME280;13513;42.700;23.124;2024-01-06T07:03:35;150803.34;;;7.41;83.79
10718;BME280;13513;42.700;23.124;2024-01-06T07:06:04;150826.56;;;7.50;84.50
10718;BME280;13513;42.700;23.124;2024-01-06T07:08:31;150848.53;;;7.58;82.62
10718;BME280;13513;42.700;23.124;2024-01-06T07:10:59;150835.58;;;7.53;82.76
10718;BME280;13513;42.700;23.124;2024-01-06T07:13:27;150805.92;;;7.42;82.92
10718;BME280;13513;42.700;23.124;2024-01-06T07:15:54;150854.97;;;7.61;83.24
10718;BME280;13513;42.700;23.124;2024-01-06T07:18:21;150922.11;;;7.87;81.76
10718;BME280;13513;42.700;23.124;2024-01-06T07:20:50;150953.09;;;7.99;80.74
10718;BME280;13513;42.700;23.124;2024-01-06T07:23:18;151009.97;;;8.21;78.94
10718;BME280;13513;42.700;23.124;2024-01-06T07:25:45;151071.97;;;8.45;77.46
10718;BME280;13513;42.700;23.124;2024-01-06T07:28:13;151168.84;;;8.83;73.32
10718;BME280;13513;42.700;23.124;2024-01-06T07:30:40;151265.77;;;9.20;71.85
10718;BME280;13513;42.700;23.124;2024-01-06T07:33:08;151378.25;;;9.64;67.89
10718;BME280;13513;42.700;23.124;2024-01-06T07:35:35;151410.59;;;9.76;66.43
10718;BME280;13513;42.700;23.124;2024-01-06T07:38:03;151483.02;;;10.04;66.22
10718;BME280;13513;42.700;23.124;2024-01-06T07:40:30;151459.75;;;9.95;62.79
10718;BME280;13513;42.700;23.124;2024-01-06T07:42:58;151441.62;;;9.88;64.34
10718;BME280;13513;42.700;23.124;2024-01-06T07:45:25;151484.31;;;10.05;64.21
10718;BME280;13513;42.700;23.124;2024-01-06T07:47:53;151550.34;;;10.30;64.16
10718;BME280;13513;42.700;23.124;2024-01-06T07:50:20;151785.89;;;11.21;58.35
10718;BME280;13513;42.700;23.124;2024-01-06T07:52:47;152008.78;;;12.07;55.23
10718;BME280;13513;42.700;23.124;2024-01-06T07:55:15;152233.05;;;12.94;52.00
10718;BME280;13513;42.700;23.124;2024-01-06T07:57:42;152556.19;;;14.19;47.76
10718;BME280;13513;42.700;23.124;2024-01-06T08:00:11;152921.28;;;15.59;45.06
10718;BME280;13513;42.700;23.124;2024-01-06T08:02:41;153242.50;;;16.83;41.21
10718;BME280;13513;42.700;23.124;2024-01-06T08:05:08;153567.98;;;18.08;39.15
10718;BME280;13513;42.700;23.124;2024-01-06T08:07:36;153678.72;;;18.51;37.55
10718;BME280;13513;42.700;23.124;2024-01-06T08:10:04;153362.22;;;17.29;38.34
10718;BME280;13513;42.700;23.124;2024-01-06T08:12:32;153078.58;;;16.20;40.77
10718;BME280;13513;42.700;23.124;2024-01-06T08:15:00;153173.56;;;16.57;40.69
10718;BME280;13513;42.700;23.124;2024-01-06T08:17:28;153332.30;;;17.18;38.96
10718;BME280;13513;42.700;23.124;2024-01-06T08:19:55;153713.91;;;18.64;37.63
10718;BME280;13513;42.700;23.124;2024-01-06T08:22:23;154065.92;;;20.00;35.46
10718;BME280;13513;42.700;23.124;2024-01-06T08:24:50;154559.45;;;21.89;32.78
10718;BME280;13513;42.700;23.124;2024-01-06T08:27:18;154571.23;;;21.93;31.17
10718;BME280;13513;42.700;23.124;2024-01-06T08:29:47;154105.11;;;20.15;33.34
10718;BME280;13513;42.700;23.124;2024-01-06T08:32:15;154165.13;;;20.38;33.06
10718;BME280;13513;42.700;23.124;2024-01-06T08:34:42;153969.45;;;19.63;34.36
10718;BME280;13513;42.700;23.124;2024-01-06T08:37:10;153845.55;;;19.15;35.83
10718;BME280;13513;42.700;23.124;2024-01-06T08:39:37;153810.36;;;19.01;36.14
10718;BME280;13513;42.700;23.124;2024-01-06T08:42:05;153810.36;;;19.01;35.77
10718;BME280;13513;42.700;23.124;2024-01-06T08:44:32;153690.47;;;18.55;36.54
10718;BME280;13513;42.700;23.124;2024-01-06T08:47:00;153163.16;;;16.53;40.04
10718;BME280;13513;42.700;23.124;2024-01-06T08:49:27;153406.55;;;17.46;39.82
10718;BME280;13513;42.700;23.124;2024-01-06T08:51:55;153720.41;;;18.67;38.39
10718;BME280;13513;42.700;23.124;2024-01-06T08:54:22;154047.66;;;19.93;36.82
10718;BME280;13513;42.700;23.124;2024-01-06T08:56:50;154077.69;;;20.04;36.21
10718;BME280;13513;42.700;23.124;2024-01-06T08:59:17;153646.16;;;18.38;40.60
10718;BME280;13513;42.700;23.124;2024-01-06T09:01:46;153130.58;;;16.40;42.96
10718;BME280;13513;42.700;23.124;2024-01-06T09:04:13;152893.95;;;15.49;46.62
10718;BME280;13513;42.700;23.124;2024-01-06T09:06:41;152808.17;;;15.16;44.18
10718;BME280;13513;42.700;23.124;2024-01-06T09:09:09;152927.78;;;15.62;44.07
10718;BME280;13513;42.700;23.124;2024-01-06T09:11:37;153086.39;;;16.23;42.24
10718;BME280;13513;42.700;23.124;2024-01-06T09:14:04;152886.19;;;15.46;43.09
10718;BME280;13513;42.700;23.124;2024-01-06T09:16:32;152696.47;;;14.73;44.85
10718;BME280;13513;42.700;23.124;2024-01-06T09:18:59;152575.69;;;14.26;46.63
10718;BME280;13513;42.700;23.124;2024-01-06T09:21:26;152467.91;;;13.85;47.78
10718;BME280;13513;42.700;23.124;2024-01-06T09:23:54;152427.66;;;13.69;48.92
10718;BME280;13513;42.700;23.124;2024-01-06T09:26:21;152378.34;;;13.50;48.70
10718;BME280;13513;42.700;23.124;2024-01-06T09:28:49;152198.03;;;12.81;50.44
10718;BME280;13513;42.700;23.124;2024-01-06T09:31:16;152029.52;;;12.15;53.11
10718;BME280;13513;42.700;23.124;2024-01-06T09:33:44;151835.11;;;11.40;57.26
10718;BME280;13513;42.700;23.124;2024-01-06T09:36:11;151749.67;;;11.07;60.48
10718;BME280;13513;42.700;23.124;2024-01-06T09:38:40;151706.94;;;10.91;63.11
10718;BME280;13513;42.700;23.124;2024-01-06T09:41:07;151704.36;;;10.90;61.86
10718;BME280;13513;42.700;23.124;2024-01-06T09:43:35;151634.47;;;10.63;64.87
10718;BME280;13513;42.700;23.124;2024-01-06T09:46:15;151635.72;;;10.63;64.89
10718;BME280;13513;42.700;23.124;2024-01-06T09:48:41;151585.28;;;10.44;66.05
10718;BME280;13513;42.700;23.124;2024-01-06T09:51:12;151568.47;;;10.37;66.94
10718;BME280;13513;42.700;23.124;2024-01-06T09:53:47;151558.13;;;10.33;67.72
10718;BME280;13513;42.700;23.124;2024-01-06T09:56:12;151511.53;;;10.15;68.87
10718;BME280;13513;42.700;23.124;2024-01-06T09:58:41;151486.95;;;10.06;71.31
10718;BME280;13513;42.700;23.124;2024-01-06T10:01:10;151523.19;;;10.20;71.75
10718;BME280;13513;42.700;23.124;2024-01-06T10:03:38;151549.03;;;10.30;71.47
10718;BME280;13513;42.700;23.124;2024-01-06T10:06:06;151511.53;;;10.15;71.97
10718;BME280;13513;42.700;23.124;2024-01-06T10:08:35;151528.34;;;10.22;70.87
10718;BME280;13513;42.700;23.124;2024-01-06T10:11:03;151498.61;;;10.10;72.79
10718;BME280;13513;42.700;23.124;2024-01-06T10:13:30;151466.20;;;9.98;74.57
10718;BME280;13513;42.700;23.124;2024-01-06T10:15:58;151472.66;;;10.00;74.94
10718;BME280;13513;42.700;23.124;2024-01-06T10:18:26;151516.67;;;10.17;73.95
10718;BME280;13513;42.700;23.124;2024-01-06T10:20:56;151542.58;;;10.27;74.02
10718;BME280;13513;42.700;23.124;2024-01-06T10:23:28;151611.12;;;10.54;71.68
10718;BME280;13513;42.700;23.124;2024-01-06T10:25:56;151648.70;;;10.68;71.17
10718;BME280;13513;42.700;23.124;2024-01-06T10:28:24;151678.44;;;10.80;70.99
10718;BME280;13513;42.700;23.124;2024-01-06T10:30:53;151754.83;;;11.09;70.45
10718;BME280;13513;42.700;23.124;2024-01-06T10:33:26;151828.64;;;11.38;69.05
10718;BME280;13513;42.700;23.124;2024-01-06T10:35:50;151802.77;;;11.28;67.66
10718;BME280;13513;42.700;23.124;2024-01-06T10:38:17;151810.50;;;11.31;69.16
10718;BME280;13513;42.700;23.124;2024-01-06T10:41:04;151851.98;;;11.47;68.25
10718;BME280;13513;42.700;23.124;2024-01-06T10:43:37;151901.20;;;11.66;66.29
10718;BME280;13513;42.700;23.124;2024-01-06T10:46:06;151879.17;;;11.57;66.39
10718;BME280;13513;42.700;23.124;2024-01-06T10:48:37;151889.58;;;11.61;66.81
10718;BME280;13513;42.700;23.124;2024-01-06T10:51:07;151937.50;;;11.80;66.37
10718;BME280;13513;42.700;23.124;2024-01-06T10:53:35;151959.53;;;11.88;64.40
10718;BME280;13513;42.700;23.124;2024-01-06T10:56:06;151927.14;;;11.76;65.05
10718;BME280;13513;42.700;23.124;2024-01-06T10:58:37;151916.77;;;11.72;65.23
10718;BME280;13513;42.700;23.124;2024-01-06T11:01:06;151905.09;;;11.67;66.98
10718;BME280;13513;42.700;23.124;2024-01-06T11:03:38;151875.28;;;11.56;67.17
10718;BME280;13513;42.700;23.124;2024-01-06T11:06:07;151833.84;;;11.40;67.15
10718;BME280;13513;42.700;23.124;2024-01-06T11:08:46;151862.34;;;11.51;68.59
10718;BME280;13513;42.700;23.124;2024-01-06T11:11:11;151894.73;;;11.63;66.52
10718;BME280;13513;42.700;23.124;2024-01-06T11:13:39;151785.89;;;11.21;68.00
10718;BME280;13513;42.700;23.124;2024-01-06T11:16:07;151800.14;;;11.27;70.16
10718;BME280;13513;42.700;23.124;2024-01-06T11:18:36;151761.28;;;11.12;68.78
10718;BME280;13513;42.700;23.124;2024-01-06T11:21:21;151788.52;;;11.22;68.49
10718;BME280;13513;42.700;23.124;2024-01-06T11:24:09;151756.13;;;11.10;70.58
10718;BME280;13513;42.700;23.124;2024-01-06T11:26:42;151780.73;;;11.19;69.25
10718;BME280;13513;42.700;23.124;2024-01-06T11:29:10;151792.41;;;11.24;69.44
10718;BME280;13513;42.700;23.124;2024-01-06T11:31:38;151854.56;;;11.48;67.62
10718;BME280;13513;42.700;23.124;2024-01-06T11:34:18;151832.53;;;11.39;65.78
10718;BME280;13513;42.700;23.124;2024-01-06T11:36:49;151842.89;;;11.43;67.08
10718;BME280;13513;42.700;23.124;2024-01-06T11:39:36;151758.72;;;11.11;67.90
10718;BME280;13513;42.700;23.124;2024-01-06T11:42:05;151766.48;;;11.14;67.33
10718;BME280;13513;42.700;23.124;2024-01-06T11:44:44;151774.27;;;11.17;66.63
10718;BME280;13513;42.700;23.124;2024-01-06T11:47:04;151762.59;;;11.12;67.76
10718;BME280;13513;42.700;23.124;2024-01-06T11:49:32;151706.94;;;10.91;69.43
10718;BME280;13513;42.700;23.124;2024-01-06T11:52:01;151723.75;;;10.97;70.94
10718;BME280;13513;42.700;23.124;2024-01-06T11:54:29;151715.97;;;10.94;68.87
10718;BME280;13513;42.700;23.124;2024-01-06T11:56:58;151730.22;;;11.00;70.37
10718;BME280;13513;42.700;23.124;2024-01-06T11:59:25;151780.73;;;11.19;70.56
10718;BME280;13513;42.700;23.124;2024-01-06T12:01:53;151791.09;;;11.23;69.80
10718;BME280;13513;42.700;23.124;2024-01-06T12:04:21;151683.66;;;10.82;68.08
10718;BME280;13513;42.700;23.124;2024-01-06T12:06:48;151713.41;;;10.93;67.24
10718;BME280;13513;42.700;23.124;2024-01-06T12:09:17;151656.44;;;10.71;67.64
10718;BME280;13513;42.700;23.124;2024-01-06T12:11:45;151631.84;;;10.62;67.35
10718;BME280;13513;42.700;23.124;2024-01-06T12:14:13;151587.86;;;10.45;69.02
10718;BME280;13513;42.700;23.124;2024-01-06T12:16:42;151593.06;;;10.47;69.54
10718;BME280;13513;42.700;23.124;2024-01-06T12:19:10;151598.22;;;10.49;70.54
10718;BME280;13513;42.700;23.124;2024-01-06T12:21:37;151607.30;;;10.52;68.78
10718;BME280;13513;42.700;23.124;2024-01-06T12:24:15;151587.86;;;10.45;67.58
10718;BME280;13513;42.700;23.124;2024-01-06T12:26:43;151643.50;;;10.66;66.68
10718;BME280;13513;42.700;23.124;2024-01-06T12:29:13;151659.06;;;10.72;65.22
10718;BME280;13513;42.700;23.124;2024-01-06T12:31:41;151681.02;;;10.81;63.88
10718;BME280;13513;42.700;23.124;2024-01-06T12:34:10;151665.52;;;10.75;64.69
10718;BME280;13513;42.700;23.124;2024-01-06T12:36:38;151687.55;;;10.83;62.38
10718;BME280;13513;42.700;23.124;2024-01-06T12:39:11;151709.52;;;10.92;62.85
10718;BME280;13513;42.700;23.124;2024-01-06T12:41:42;151809.23;;;11.30;60.79
10718;BME280;13513;42.700;23.124;2024-01-06T12:44:10;151814.37;;;11.32;59.75
10718;BME280;13513;42.700;23.124;2024-01-06T12:46:39;151864.92;;;11.52;58.49
10718;BME280;13513;42.700;23.124;2024-01-06T12:49:06;151947.86;;;11.84;57.68